Time;durP1;ratioP1;P1;durP2;ratioP2;P2;SDS_P1;SDS_P2;PMS_P1;PMS_P2;Temp;Humidity;BMP_temperature;BMP_pressure;BME280_temperature;BME280_humidity;BME280_pressure;Samples;Min_cycle;Max_cycle;Signal;HPM_P1;HPM_P2
2023/03/29 00:01:46;;;;;;;3.10;1.50;;;;;;;2.22;73.80;100720.66;5053135;28;20028;-69
2023/03/29 00:04:12;;;;;;;5.50;1.90;;;;;;;2.38;74.85;100730.31;5053291;28;20021;-69
2023/03/29 00:06:38;;;;;;;2.10;1.27;;;;;;;2.32;74.13;100732.41;5050189;28;20052;-69
2023/03/29 00:09:08;;;;;;;3.17;1.70;;;;;;;2.35;75.67;100745.38;5052717;28;20028;-69
2023/03/29 00:11:34;;;;;;;3.33;1.60;;;;;;;2.14;75.12;100722.63;5034573;28;20033;-69
2023/03/29 00:13:59;;;;;;;3.37;1.80;;;;;;;2.15;75.49;100737.13;5053131;28;20398;-70
2023/03/29 00:16:25;;;;;;;3.60;1.90;;;;;;;2.10;75.25;100735.91;5052465;28;20453;-69
2023/03/29 00:18:51;;;;;;;3.10;1.43;;;;;;;2.02;75.76;100737.88;5050225;28;20053;-68
2023/03/29 00:21:17;;;;;;;4.70;1.90;;;;;;;2.17;75.82;100747.44;5052942;28;20032;-70
2023/03/29 00:23:43;;;;;;;4.73;1.67;;;;;;;2.00;76.28;100751.28;5052581;28;20402;-70
2023/03/29 00:26:08;;;;;;;2.33;1.90;;;;;;;1.92;76.22;100741.38;5051102;28;20063;-70
2023/03/29 00:28:34;;;;;;;2.97;1.80;;;;;;;1.89;76.06;100753.00;5052689;28;20061;-70
2023/03/29 00:31:09;;;;;;;2.13;1.57;;;;;;;1.84;76.25;100756.84;5050888;28;20502;-70
2023/03/29 00:33:35;;;;;;;3.63;1.70;;;;;;;1.88;76.90;100753.75;5050211;28;20060;-74
2023/03/29 00:36:02;;;;;;;2.87;1.70;;;;;;;1.75;76.44;100708.69;5051195;28;20521;-70
2023/03/29 00:38:28;;;;;;;4.67;1.90;;;;;;;1.92;76.10;100753.25;5052412;28;20670;-71
2023/03/29 00:40:53;;;;;;;2.87;1.50;;;;;;;1.72;77.20;100727.16;5051815;28;20078;-69
2023/03/29 00:43:19;;;;;;;2.50;1.60;;;;;;;1.79;77.26;100753.94;5051682;28;20021;-71
2023/03/29 00:45:44;;;;;;;2.53;1.50;;;;;;;1.63;77.42;100749.34;5050466;28;20104;-71
2023/03/29 00:48:14;;;;;;;3.83;1.60;;;;;;;1.57;77.93;100729.41;5052207;28;20032;-70
2023/03/29 00:50:47;;;;;;;5.97;1.80;;;;;;;1.60;77.99;100744.03;5049173;28;20029;-71
2023/03/29 00:53:21;;;;;;;4.03;1.50;;;;;;;1.72;78.00;100760.25;5050896;28;20526;-71
2023/03/29 00:55:53;;;;;;;3.87;1.67;;;;;;;1.79;77.83;100761.59;5032487;28;20483;-71
2023/03/29 00:58:26;;;;;;;2.63;1.70;;;;;;;1.75;78.21;100763.00;5052022;28;20027;-71
2023/03/29 01:01:10;;;;;;;4.00;1.60;;;;;;;1.68;78.44;100753.13;5051917;28;20032;-71
2023/03/29 01:03:45;;;;;;;4.23;2.13;;;;;;;1.73;78.91;100756.94;5051568;28;20086;-71
2023/03/29 01:06:14;;;;;;;5.07;2.00;;;;;;;1.80;78.36;100759.94;5051810;28;20033;-71
2023/03/29 01:08:49;;;;;;;2.45;1.40;;;;;;;1.93;78.16;100760.09;5051851;28;20106;-70
2023/03/29 01:11:28;;;;;;;1.93;1.37;;;;;;;1.93;76.73;100740.63;5050052;28;20063;-70
2023/03/29 01:14:28;;;;;;;3.73;1.87;;;;;;;2.10;77.23;100756.28;5051463;28;20094;-70
2023/03/29 01:16:54;;;;;;;4.70;1.83;;;;;;;1.41;79.04;100701.00;5051810;28;20061;-70
2023/03/29 01:19:25;;;;;;;3.50;2.73;;;;;;;1.58;80.16;100760.81;5051497;28;20518;-70
2023/03/29 01:22:00;;;;;;;3.70;1.67;;;;;;;1.42;80.79;100754.56;5050891;28;20051;-70
2023/03/29 01:25:06;;;;;;;3.50;1.83;;;;;;;1.33;81.26;100784.34;5051180;28;20490;-71
2023/03/29 01:27:37;;;;;;;2.57;1.70;;;;;;;1.37;82.60;100785.47;5051720;28;20025;-73
2023/03/29 01:30:10;;;;;;;3.57;1.87;;;;;;;1.18;81.56;100732.28;5051650;28;20021;-73
2023/03/29 01:33:03;;;;;;;2.40;1.63;;;;;;;1.60;81.55;100789.81;5051258;28;20027;-74
2023/03/29 01:35:40;;;;;;;3.93;2.10;;;;;;;1.71;80.91;100799.19;5008881;28;20034;-73
2023/03/29 01:38:20;;;;;;;4.40;2.30;;;;;;;1.78;80.01;100780.16;5008879;28;20805;-73
2023/03/29 01:40:45;;;;;;;;;;;;;;;1.81;79.35;100794.78;5008996;28;20060;-73
2023/03/29 01:43:30;;;;;;;2.80;1.70;;;;;;;1.82;78.04;100801.66;5008580;28;20379;-73
2023/03/29 01:46:10;;;;;;;2.57;1.60;;;;;;;1.85;77.54;100809.56;5008466;28;20038;-74
2023/03/29 01:48:40;;;;;;;4.10;1.65;;;;;;;2.03;76.88;100800.78;5008538;28;20034;-74
2023/03/29 01:51:13;;;;;;;4.23;1.77;;;;;;;2.20;76.30;100801.16;5008453;28;20501;-73
2023/03/29 01:54:11;;;;;;;5.00;2.20;;;;;;;1.92;75.84;100794.00;5003855;28;20471;-73
2023/03/29 01:56:40;;;;;;;4.27;2.10;;;;;;;1.60;76.61;100747.44;4950011;29;20081;-71
2023/03/29 01:59:13;;;;;;;3.03;1.90;;;;;;;1.97;77.89;100812.13;4947049;29;20103;-71
2023/03/29 02:01:47;;;;;;;6.87;3.03;;;;;;;1.99;77.93;100821.66;4938650;28;20043;-72
2023/03/29 02:04:20;;;;;;;4.80;2.13;;;;;;;1.98;77.15;100830.09;4931248;29;20044;-70
2023/03/29 02:06:49;;;;;;;3.10;2.10;;;;;;;1.73;78.53;100832.38;4948348;29;20067;-70
2023/03/29 02:09:15;;;;;;;3.03;1.90;;;;;;;1.21;80.50;100818.97;4950166;29;20426;-70
2023/03/29 02:11:43;;;;;;;3.43;1.50;;;;;;;0.96;81.52;100811.94;4925785;28;20041;-70
2023/03/29 02:14:09;;;;;;;5.30;1.70;;;;;;;0.76;82.61;100828.09;5001223;28;20145;-70
2023/03/29 02:16:38;;;;;;;4.53;1.30;;;;;;;0.85;83.26;100840.66;5008093;28;20140;-70
2023/03/29 02:19:05;;;;;;;3.53;1.40;;;;;;;0.68;85.11;100847.78;5008329;28;20429;-70
2023/03/29 02:21:46;;;;;;;2.07;1.40;;;;;;;-0.22;85.12;100718.50;5008065;28;20423;-70
2023/03/29 02:24:17;;;;;;;3.67;1.67;;;;;;;0.45;86.04;100856.06;5007939;28;20108;-70
2023/03/29 02:26:42;;;;;;;3.93;1.50;;;;;;;0.48;86.07;100864.81;5007642;28;20041;-70
2023/03/29 02:29:08;;;;;;;2.50;1.40;;;;;;;0.41;85.65;100856.53;4971126;28;20104;-70
2023/03/29 02:31:43;;;;;;;3.07;1.60;;;;;;;0.50;85.66;100871.66;5008124;28;20061;-71
2023/03/29 02:34:28;;;;;;;3.80;1.80;;;;;;;0.59;85.55;100869.91;5041347;28;20398;-71
2023/03/29 02:37:05;;;;;;;4.20;1.80;;;;;;;0.63;85.82;100862.66;5049352;28;20029;-71
2023/03/29 02:39:33;;;;;;;4.50;1.73;;;;;;;0.68;85.36;100872.31;5050032;28;20039;-71
2023/03/29 02:42:00;;;;;;;4.53;2.00;;;;;;;0.64;84.95;100864.44;5050168;28;20039;-71
2023/03/29 02:44:28;;;;;;;5.10;2.30;;;;;;;0.60;85.25;100881.84;5050182;28;20044;-71
2023/03/29 02:47:05;;;;;;;4.53;1.80;;;;;;;0.59;85.18;100878.41;5049372;28;20669;-71
2023/03/29 02:49:31;;;;;;;5.10;1.97;;;;;;;0.73;85.04;100887.16;5049674;28;20028;-71
2023/03/29 02:52:06;;;;;;;3.53;1.90;;;;;;;0.38;84.86;100824.16;5049942;28;20029;-72
2023/03/29 02:54:31;;;;;;;3.07;1.80;;;;;;;0.63;84.46;100888.06;5048552;28;20507;-71
2023/03/29 02:57:05;;;;;;;5.80;1.90;;;;;;;0.50;84.75;100871.66;5049296;28;20114;-72
2023/03/29 02:59:32;;;;;;;4.77;2.00;;;;;;;0.74;84.37;100901.66;5049814;28;20031;-69
2023/03/29 03:01:58;;;;;;;4.63;1.87;;;;;;;0.59;84.16;100901.28;5049973;28;20036;-69
2023/03/29 03:04:24;;;;;;;4.07;1.90;;;;;;;0.61;84.72;100914.09;5050146;28;20562;-68
2023/03/29 03:06:49;;;;;;;4.23;1.90;;;;;;;0.60;84.42;100905.59;5050211;28;20027;-69
2023/03/29 03:09:15;;;;;;;3.13;1.73;;;;;;;0.20;85.01;100887.00;5049971;28;20096;-69
2023/03/29 03:11:41;;;;;;;3.43;2.03;;;;;;;0.27;86.47;100907.06;5050157;28;20025;-69
2023/03/29 03:14:07;;;;;;;2.97;1.77;;;;;;;0.44;85.39;100911.03;5050116;28;20033;-68
2023/03/29 03:16:32;;;;;;;3.20;1.80;;;;;;;0.53;85.04;100920.22;5050030;28;20040;-70
2023/03/29 03:18:59;;;;;;;2.60;2.00;;;;;;;0.45;84.83;100914.50;5049645;28;20481;-69
2023/03/29 03:21:27;;;;;;;4.67;2.17;;;;;;;0.38;85.13;100915.59;5049982;28;20112;-68
2023/03/29 03:23:53;;;;;;;3.07;2.07;;;;;;;0.48;84.70;100932.50;5049570;28;20036;-68
2023/03/29 03:26:18;;;;;;;3.23;2.00;;;;;;;0.37;84.87;100933.25;5050057;28;20039;-69
2023/03/29 03:28:47;;;;;;;5.13;2.10;;;;;;;0.44;85.03;100925.41;5050222;28;20107;-68
2023/03/29 03:31:13;;;;;;;4.87;2.03;;;;;;;0.30;84.69;100934.41;5048141;28;20037;-69
2023/03/29 03:33:39;;;;;;;3.23;1.90;;;;;;;0.17;85.06;100919.75;5050018;28;20036;-69
2023/03/29 03:36:07;;;;;;;3.60;1.90;;;;;;;0.03;86.27;100941.41;5048617;28;20033;-70
2023/03/29 03:38:33;;;;;;;2.87;2.20;;;;;;;-0.04;86.60;100959.38;5050156;28;20116;-70
2023/03/29 03:41:00;;;;;;;3.37;1.80;;;;;;;-0.18;87.80;100948.91;5050002;28;20024;-71
2023/03/29 03:43:26;;;;;;;2.20;1.77;;;;;;;-0.31;88.17;100953.69;5049605;28;20021;-72
2023/03/29 03:45:51;;;;;;;4.43;2.03;;;;;;;-0.62;88.85;100905.31;5050142;28;20529;-70
2023/03/29 03:48:17;;;;;;;4.23;2.13;;;;;;;-0.39;88.90;100952.13;5049863;28;20134;-69
2023/03/29 03:50:54;;;;;;;4.13;2.50;;;;;;;-0.41;89.59;100958.69;5049960;28;20056;-68
2023/03/29 03:53:20;;;;;;;3.80;2.33;;;;;;;-0.32;89.42;100956.97;5050035;28;20095;-70
2023/03/29 03:55:51;;;;;;;3.83;1.97;;;;;;;-0.61;88.62;100893.53;5049884;28;20025;-69
2023/03/29 03:58:17;;;;;;;4.60;2.10;;;;;;;-0.11;87.94;100964.69;5049947;28;20032;-69
2023/03/29 04:00:44;;;;;;;3.17;2.10;;;;;;;-0.33;87.79;100935.78;5049827;28;20060;-68
2023/03/29 04:03:09;;;;;;;4.30;2.10;;;;;;;-0.14;87.90;100967.84;5049589;28;20036;-71
2023/03/29 04:05:39;;;;;;;4.57;2.20;;;;;;;-0.31;88.17;100965.47;5049694;28;20041;-70
2023/03/29 04:08:08;;;;;;;5.37;2.20;;;;;;;-0.99;89.18;100858.97;5049784;28;20111;-69
2023/03/29 04:10:34;;;;;;;5.40;2.33;;;;;;;-0.33;89.02;100973.84;5052586;28;20083;-70
2023/03/29 04:13:06;;;;;;;4.10;2.20;;;;;;;-0.66;90.20;100981.88;5053451;28;20033;-69
2023/03/29 04:15:37;;;;;;;3.87;2.20;;;;;;;-0.60;90.78;100982.41;5053243;28;20039;-68
2023/03/29 04:18:02;;;;;;;3.73;2.30;;;;;;;-0.48;90.36;100977.56;5053055;28;20049;-70
2023/03/29 04:20:29;;;;;;;4.07;3.00;;;;;;;-0.54;89.41;100990.56;5053214;28;20037;-68
2023/03/29 04:22:55;;;;;;;2.60;2.03;;;;;;;-0.37;89.39;100999.69;5052755;28;20080;-69
2023/03/29 04:25:21;;;;;;;3.33;2.17;;;;;;;-0.41;88.01;101005.25;5052547;28;20538;-71
2023/03/29 04:27:47;;;;;;;4.07;2.30;;;;;;;-0.44;87.18;101004.97;5053233;28;20475;-70
2023/03/29 04:30:13;;;;;;;4.07;2.10;;;;;;;-0.46;88.03;101013.19;5033929;28;20041;-69
2023/03/29 04:32:38;;;;;;;4.17;2.40;;;;;;;-0.41;87.36;101014.50;5052717;28;20025;-68
2023/03/29 04:35:05;;;;;;;4.73;2.90;;;;;;;-0.47;86.77;100996.19;5052830;28;20028;-69
2023/03/29 04:37:31;;;;;;;6.73;3.50;;;;;;;-0.36;85.82;101023.44;5052664;28;20475;-72
2023/03/29 04:40:00;;;;;;;3.63;2.63;;;;;;;-0.76;85.55;100957.34;5052862;28;20029;-70
2023/03/29 04:42:26;;;;;;;4.70;2.30;;;;;;;-0.36;85.82;101028.50;5052758;28;20033;-69
2023/03/29 04:44:52;;;;;;;4.00;2.40;;;;;;;-0.25;85.39;101037.06;5033553;28;20349;-69
2023/03/29 04:47:18;;;;;;;4.80;2.57;;;;;;;-0.45;85.36;100984.53;5050276;28;20040;-72
2023/03/29 04:49:44;;;;;;;6.53;2.80;;;;;;;-0.18;84.28;101040.28;5052905;28;20112;-68
2023/03/29 04:52:10;;;;;;;5.47;2.63;;;;;;;-0.05;85.34;101039.75;5052401;28;20120;-74
2023/03/29 04:54:36;;;;;;;4.53;2.27;;;;;;;-0.07;83.94;101048.84;5052415;28;20025;-69
2023/03/29 04:57:02;;;;;;;4.77;2.83;;;;;;;-0.06;84.08;101047.22;5052575;28;20052;-71
2023/03/29 04:59:28;;;;;;;3.30;2.47;;;;;;;-0.09;82.26;101041.84;5052591;28;20021;-69
2023/03/29 05:01:53;;;;;;;4.13;2.63;;;;;;;-0.10;82.81;101058.75;5052355;28;20033;-69
2023/03/29 05:04:19;;;;;;;5.27;2.87;;;;;;;0.17;82.95;101050.88;5052214;28;20025;-69
2023/03/29 05:06:45;;;;;;;5.90;2.80;;;;;;;0.07;82.40;101046.66;5052223;28;20438;-70
2023/03/29 05:09:10;;;;;;;4.83;3.07;;;;;;;0.29;82.03;101047.75;5051568;28;20064;-71
2023/03/29 05:11:35;;;;;;;6.00;3.30;;;;;;;0.35;80.54;101043.97;5052396;28;20108;-69
2023/03/29 05:14:02;;;;;;;5.30;3.40;;;;;;;-0.13;81.85;100974.72;5052444;28;20048;-69
2023/03/29 05:16:31;;;;;;;10.53;3.00;;;;;;;0.23;82.19;101028.56;5051613;28;20033;-68
2023/03/29 05:18:56;;;;;;;8.70;3.50;;;;;;;-0.11;82.27;100964.69;5051552;28;20110;-68
2023/03/29 05:21:22;;;;;;;9.23;3.50;;;;;;;0.29;82.73;101041.81;5049939;28;20461;-70
2023/03/29 05:23:48;;;;;;;5.30;3.70;;;;;;;0.34;83.24;101037.09;5051037;28;20502;-70
2023/03/29 05:26:14;;;;;;;6.70;4.10;;;;;;;0.31;84.48;101040.28;5044435;28;20029;-68
2023/03/29 05:28:40;;;;;;;6.47;3.80;;;;;;;0.43;85.02;101028.63;5051530;28;20051;-69
2023/03/29 05:31:06;;;;;;;6.00;3.60;;;;;;;0.63;84.48;101045.59;5044275;28;20039;-71
2023/03/29 05:33:32;;;;;;;6.30;3.70;;;;;;;0.37;82.78;100982.38;5047420;28;20037;-69
2023/03/29 05:36:12;;;;;;;6.50;3.67;;;;;;;0.95;82.29;101051.66;5048819;28;20029;-71
2023/03/29 05:38:37;;;;;;;;;;;;;;;1.05;82.53;101049.13;5049991;28;20376;-70
2023/03/29 05:41:03;;;;;;;5.57;3.43;;;;;;;1.07;81.83;101070.50;5051219;28;19920;-73
2023/03/29 05:43:28;;;;;;;6.90;3.57;;;;;;;1.19;81.64;101065.53;5051056;28;20021;-72
2023/03/29 05:45:55;;;;;;;6.57;3.30;;;;;;;1.31;81.02;101063.16;5051329;28;20033;-69
2023/03/29 05:48:22;;;;;;;5.40;3.20;;;;;;;1.52;79.96;101071.69;5051453;28;20025;-71
2023/03/29 05:50:49;;;;;;;6.83;3.90;;;;;;;1.66;77.19;101074.44;5050511;28;20029;-71
2023/03/29 05:53:18;;;;;;;4.57;3.47;;;;;;;1.76;75.89;101075.34;5051290;28;20035;-69
2023/03/29 05:55:44;;;;;;;4.35;3.17;;;;;;;1.85;74.91;101076.88;5051144;28;20098;-68
2023/03/29 05:58:11;;;;;;;3.70;2.60;;;;;;;1.87;73.73;101086.41;5048026;28;20029;-69
2023/03/29 06:00:37;;;;;;;4.97;2.60;;;;;;;1.92;72.41;101079.16;5049979;28;20029;-66
2023/03/29 06:03:03;;;;;;;6.83;4.00;;;;;;;2.05;73.74;101076.81;5051033;28;20399;-68
2023/03/29 06:05:29;;;;;;;6.43;3.43;;;;;;;2.21;74.22;101062.78;5050536;28;20021;-67
2023/03/29 06:07:55;;;;;;;6.70;3.37;;;;;;;2.53;74.16;101079.72;5050869;28;20013;-67
2023/03/29 06:10:22;;;;;;;5.00;3.50;;;;;;;2.48;71.89;101068.28;5050528;28;20115;-69
2023/03/29 06:12:49;;;;;;;3.93;2.50;;;;;;;2.69;71.58;101077.63;5050749;28;20104;-70
2023/03/29 06:15:15;;;;;;;4.40;2.90;;;;;;;2.85;69.94;101084.78;5050688;28;20108;-76
2023/03/29 06:17:43;;;;;;;5.30;2.83;;;;;;;2.95;70.32;101080.44;5050171;28;20048;-70
2023/03/29 06:20:10;;;;;;;7.13;3.30;;;;;;;2.76;71.01;101015.25;5050641;28;20449;-70
2023/03/29 06:22:40;;;;;;;7.27;2.93;;;;;;;2.98;69.19;101090.84;5049629;28;20051;-70
2023/03/29 06:25:09;;;;;;;4.07;2.95;;;;;;;3.00;69.29;101082.53;5050316;28;20475;-68
2023/03/29 06:27:35;;;;;;;5.38;2.88;;;;;;;2.75;67.78;101026.22;5031152;28;20095;-71
2023/03/29 06:30:02;;;;;;;3.77;2.80;;;;;;;3.16;67.21;101079.50;5030958;28;20099;-71
2023/03/29 06:32:28;;;;;;;4.18;3.13;;;;;;;3.36;66.17;101086.13;5030728;28;20117;-69
2023/03/29 06:34:54;;;;;;;3.90;2.80;;;;;;;3.46;65.27;101086.84;5012118;28;20045;-71
2023/03/29 06:37:21;;;;;;;6.00;2.00;;;;;;;3.46;63.13;101079.19;5030805;28;20057;-69
2023/03/29 06:39:51;;;;;;;2.58;2.15;;;;;;;3.76;65.36;101089.91;5030417;28;20557;-72
2023/03/29 06:42:18;;;;;;;11.25;2.47;;;;;;;3.59;64.40;101083.53;5031041;28;20025;-72
2023/03/29 06:44:44;;;;;;;5.95;3.53;;;;;;;3.73;65.21;101091.44;5028872;28;20041;-71
2023/03/29 06:47:10;;;;;;;6.93;3.30;;;;;;;3.69;66.57;101056.25;5029021;28;20045;-69
2023/03/29 06:49:35;;;;;;;5.72;4.18;;;;;;;3.84;65.78;101093.94;5030540;28;20447;-69
2023/03/29 06:52:00;;;;;;;4.18;2.70;;;;;;;3.62;65.51;101094.00;5030351;28;20046;-72
2023/03/29 06:54:26;;;;;;;7.45;2.60;;;;;;;3.57;65.28;101093.63;5030612;28;20409;-73
2023/03/29 06:56:52;;;;;;;4.85;3.50;;;;;;;3.45;66.11;101042.56;5030462;28;20476;-68
2023/03/29 06:59:17;;;;;;;7.15;3.22;;;;;;;3.69;66.47;101075.81;5030064;28;20410;-72
2023/03/29 07:01:43;;;;;;;4.90;2.53;;;;;;;3.87;64.66;101074.59;5030114;28;20403;-73
2023/03/29 07:04:09;;;;;;;3.70;2.40;;;;;;;4.18;64.65;101092.16;5030044;28;20041;-68
2023/03/29 07:06:37;;;;;;;3.85;2.30;;;;;;;4.37;62.93;101076.50;5030567;28;20029;-68
2023/03/29 07:09:05;;;;;;;4.40;3.22;;;;;;;4.54;62.06;101084.47;5030140;28;20029;-69
2023/03/29 07:11:32;;;;;;;3.28;2.30;;;;;;;4.52;60.60;101099.72;5030198;28;20025;-68
2023/03/29 07:13:58;;;;;;;3.10;2.30;;;;;;;4.54;60.99;101103.25;5029832;28;20034;-68
2023/03/29 07:16:24;;;;;;;4.50;3.03;;;;;;;4.65;62.44;101104.03;5030445;28;20045;-70
2023/03/29 07:18:50;;;;;;;3.03;2.15;;;;;;;4.62;59.41;101102.91;5030253;28;20049;-68
2023/03/29 07:21:16;;;;;;;6.93;3.30;;;;;;;4.31;62.30;101024.94;5030262;28;20029;-69
2023/03/29 07:23:42;;;;;;;4.00;2.60;;;;;;;4.46;60.48;101037.00;5041404;28;20032;-70
2023/03/29 07:26:09;;;;;;;1.92;1.63;;;;;;;4.65;58.38;101105.72;5050265;28;20029;-71
2023/03/29 07:28:38;;;;;;;3.40;2.10;;;;;;;4.16;58.23;101051.94;5049743;28;20163;-69
2023/03/29 07:31:09;;;;;;;4.40;2.38;;;;;;;4.56;59.71;101095.72;5048689;28;20040;-72
2023/03/29 07:33:36;;;;;;;3.63;1.98;;;;;;;4.58;58.08;101089.03;5049696;28;20021;-69
2023/03/29 07:36:02;;;;;;;3.35;2.17;;;;;;;4.59;57.65;101092.50;5049779;28;20024;-68
2023/03/29 07:38:28;;;;;;;4.25;2.08;;;;;;;4.52;56.69;101093.69;5049920;28;20036;-68
2023/03/29 07:40:53;;;;;;;3.17;2.10;;;;;;;4.55;57.18;101091.38;5049978;28;20025;-71
2023/03/29 07:43:20;;;;;;;3.85;1.85;;;;;;;4.53;55.39;101080.16;5049788;28;20044;-69
2023/03/29 07:45:45;;;;;;;2.45;1.98;;;;;;;4.53;54.76;101091.25;5053869;28;20035;-68
2023/03/29 07:48:12;;;;;;;4.38;2.15;;;;;;;4.65;53.82;101091.25;5054060;28;20024;-69
2023/03/29 17:55:33;;;;;;;10.00;4.47;;;;;;;5.64;40.07;101109.91;5051593;28;20070;-72
2023/03/29 17:57:59;;;;;;;11.52;4.30;;;;;;;5.70;39.58;101119.69;5050854;28;20534;-69
2023/03/29 18:00:24;;;;;;;14.52;5.05;;;;;;;5.57;40.14;101095.81;5051109;28;20108;-68
2023/03/29 18:02:50;;;;;;;11.07;5.40;;;;;;;5.75;39.60;101123.44;5049532;28;20477;-70
2023/03/29 18:05:15;;;;;;;10.45;5.28;;;;;;;5.47;40.33;101091.75;5050927;28;20028;-69
2023/03/29 18:07:41;;;;;;;16.20;6.00;;;;;;;5.54;40.08;101131.44;5049430;28;20032;-70
2023/03/29 18:10:07;;;;;;;16.02;6.75;;;;;;;5.48;40.68;101138.72;5050477;28;20029;-71
2023/03/29 18:12:32;;;;;;;11.15;3.60;;;;;;;5.35;41.22;101137.88;5031506;28;20037;-69
2023/03/29 18:14:58;;;;;;;5.65;2.83;;;;;;;5.35;40.84;101137.88;5051080;28;20035;-68
2023/03/29 18:17:26;;;;;;;4.25;2.45;;;;;;;5.31;41.00;101138.47;5050672;28;20064;-69
2023/03/29 18:19:52;;;;;;;12.80;4.80;;;;;;;5.33;41.38;101139.47;5050536;28;20029;-71
2023/03/29 18:22:18;;;;;;;10.65;4.05;;;;;;;5.08;42.07;101093.34;5050461;28;20039;-68
2023/03/29 18:24:45;;;;;;;10.93;4.13;;;;;;;5.31;42.17;101138.47;5049910;28;20029;-67
2023/03/29 18:27:12;;;;;;;9.05;3.60;;;;;;;5.33;41.87;101152.28;5050202;28;20025;-67
2023/03/29 18:29:38;;;;;;;6.80;3.65;;;;;;;5.37;42.77;101143.13;5049459;28;20032;-66
2023/03/29 18:32:03;;;;;;;10.20;3.95;;;;;;;5.31;42.41;101153.81;5050656;28;20028;-67
2023/03/29 18:34:30;;;;;;;5.90;2.53;;;;;;;5.27;42.53;101144.16;5028458;28;20041;-67
2023/03/29 18:36:56;;;;;;;3.70;2.00;;;;;;;5.16;42.91;101147.66;5050298;28;20037;-67
2023/03/29 18:39:22;;;;;;;3.97;2.17;;;;;;;4.99;43.16;101131.09;5050161;28;20036;-67
2023/03/29 18:41:48;;;;;;;5.05;2.53;;;;;;;5.04;43.94;101163.03;5049950;28;20491;-67
2023/03/29 18:44:13;;;;;;;5.30;2.22;;;;;;;5.03;44.82;101163.78;5050539;28;20040;-70
2023/03/29 18:46:39;;;;;;;6.75;2.70;;;;;;;5.02;45.11;101154.34;5050114;28;20404;-67
2023/03/29 18:49:06;;;;;;;7.75;3.90;;;;;;;5.02;45.50;101170.59;5050067;28;20044;-71
2023/03/29 18:51:33;;;;;;;14.07;6.30;;;;;;;5.09;45.99;101160.78;5050271;28;20090;-77
2023/03/29 18:54:00;;;;;;;14.90;7.40;;;;;;;5.17;45.98;101157.09;5049733;28;20414;-74
2023/03/29 18:56:26;;;;;;;10.52;4.85;;;;;;;5.27;45.25;101162.09;5032189;28;20025;-74
2023/03/29 18:58:53;;;;;;;8.68;4.50;;;;;;;5.25;45.64;101161.06;5050225;28;20032;-73
2023/03/29 19:01:19;;;;;;;11.70;5.47;;;;;;;5.41;44.76;101178.41;5050032;28;20071;-72
2023/03/29 19:03:45;;;;;;;5.82;3.00;;;;;;;5.48;43.57;101177.13;5049888;28;20032;-73
2023/03/29 19:06:11;;;;;;;5.40;2.95;;;;;;;5.53;43.61;101180.91;5048360;28;20043;-77
2023/03/29 19:08:39;;;;;;;24.25;7.95;;;;;;;5.60;43.23;101188.22;5049341;28;20093;-75
2023/03/29 19:11:07;;;;;;;15.00;5.97;;;;;;;5.44;44.21;101167.47;5048999;28;20028;-74
2023/03/29 19:13:34;;;;;;;8.05;4.38;;;;;;;5.38;44.33;101180.72;5049610;28;20045;-80
2023/03/29 19:16:02;;;;;;;7.75;3.92;;;;;;;5.08;44.79;101164.13;5048193;28;20124;-72
2023/03/29 19:18:27;;;;;;;7.75;4.10;;;;;;;4.84;45.61;101176.97;5048266;28;20409;-74
2023/03/29 19:21:13;;;;;;;10.38;4.60;;;;;;;4.88;46.24;101185.75;5046877;28;20577;-76
2023/03/29 19:23:38;;;;;;;8.13;4.38;;;;;;;4.82;45.24;101189.66;5046827;28;20049;-72
2023/03/29 19:26:05;;;;;;;6.22;3.85;;;;;;;4.88;45.23;101181.50;5047203;28;20037;-73
2023/03/29 19:28:32;;;;;;;7.10;3.90;;;;;;;4.97;45.42;101183.84;5047100;28;20473;-75
2023/03/29 19:30:59;;;;;;;7.63;3.50;;;;;;;5.06;44.89;101192.19;5030272;28;20041;-74
2023/03/29 19:33:24;;;;;;;5.32;3.00;;;;;;;5.08;44.47;101195.72;5047128;28;20028;-71
2023/03/29 19:35:50;;;;;;;6.97;2.63;;;;;;;5.14;44.29;101196.16;5046780;28;20458;-69
2023/03/29 19:38:17;;;;;;;5.03;3.08;;;;;;;5.05;45.90;101197.16;5046677;28;20053;-75
2023/03/29 19:40:50;;;;;;;5.97;2.80;;;;;;;5.07;45.68;101191.41;5049774;28;20033;-75
2023/03/29 19:43:17;;;;;;;7.40;3.08;;;;;;;5.13;46.04;101183.25;5050743;28;20025;-75
2023/03/29 19:45:43;;;;;;;5.63;2.72;;;;;;;5.19;46.44;101197.34;5050874;28;20041;-76
2023/03/29 19:48:09;;;;;;;5.85;2.78;;;;;;;5.07;46.46;101172.59;5050487;28;20033;-72
2023/03/29 19:50:40;;;;;;;8.13;3.28;;;;;;;5.10;47.77;101196.72;5051240;28;20112;-70
2023/03/29 19:53:06;;;;;;;7.22;3.15;;;;;;;4.66;43.87;101138.16;5049251;28;20045;-69
2023/03/29 19:55:32;;;;;;;8.52;2.92;;;;;;;4.74;42.77;101200.13;5052137;28;20376;-70
2023/03/29 19:57:58;;;;;;;9.30;3.22;;;;;;;4.67;42.36;101192.00;5053602;28;20372;-70
2023/03/29 20:00:24;;;;;;;6.57;2.55;;;;;;;4.57;42.74;101193.78;5053298;28;20044;-69
2023/03/29 20:02:51;;;;;;;7.13;2.85;;;;;;;4.69;42.33;101195.53;5052811;28;20597;-70
2023/03/29 20:05:17;;;;;;;8.90;3.08;;;;;;;4.65;42.37;101192.66;5053472;28;20052;-71
2023/03/29 20:07:43;;;;;;;6.70;2.72;;;;;;;4.66;42.02;101199.53;5053283;28;20476;-69
2023/03/29 20:10:09;;;;;;;5.70;3.05;;;;;;;4.69;42.49;101195.53;5053376;28;20122;-69
2023/03/29 20:12:35;;;;;;;7.43;3.58;;;;;;;4.64;42.08;101191.75;5038817;28;20025;-73
2023/03/29 20:15:01;;;;;;;8.60;3.75;;;;;;;4.60;41.93;101199.09;5053295;28;20426;-69
2023/03/29 20:17:27;;;;;;;8.10;3.00;;;;;;;4.61;42.21;101194.13;5052622;28;20033;-72
2023/03/29 20:19:52;;;;;;;11.05;3.78;;;;;;;4.62;41.99;101179.66;5053564;28;20044;-69
2023/03/29 20:22:18;;;;;;;9.32;3.58;;;;;;;4.50;41.81;101146.41;5052890;28;20033;-68
2023/03/29 20:24:44;;;;;;;11.15;4.93;;;;;;;4.73;41.88;101183.00;5052984;28;20032;-68
2023/03/29 20:27:10;;;;;;;13.32;5.90;;;;;;;4.74;42.62;101182.22;5052534;28;20062;-69
2023/03/29 20:29:36;;;;;;;10.82;5.55;;;;;;;4.60;42.14;101171.88;5052614;28;20411;-70
2023/03/29 20:32:02;;;;;;;10.75;5.03;;;;;;;4.69;41.73;101180.19;5052417;28;20029;-73
2023/03/29 20:34:27;;;;;;;6.47;3.30;;;;;;;4.72;41.89;101183.75;5052378;28;20028;-71
2023/03/29 20:36:54;;;;;;;8.38;2.70;;;;;;;4.68;41.74;101180.09;5052478;28;20025;-74
2023/03/29 20:39:22;;;;;;;6.50;3.30;;;;;;;4.69;42.00;101182.75;5052374;28;20018;-70
2023/03/29 20:41:50;;;;;;;4.70;2.97;;;;;;;4.61;42.78;101181.31;5051188;28;20036;-71
2023/03/29 20:44:16;;;;;;;6.95;2.40;;;;;;;4.59;43.00;101177.75;5052888;28;20021;-72
2023/03/29 20:46:45;;;;;;;3.95;2.00;;;;;;;4.52;42.74;101172.97;5051943;28;20536;-72
2023/03/29 20:49:10;;;;;;;4.13;1.80;;;;;;;4.40;43.33;101179.75;5052669;28;20025;-68
2023/03/29 20:51:36;;;;;;;16.20;5.03;;;;;;;4.26;42.22;101173.63;5052280;28;20051;-73
2023/03/29 20:54:04;;;;;;;11.60;3.53;;;;;;;4.02;42.30;101125.03;5052597;28;20044;-69
2023/03/29 20:56:38;;;;;;;6.22;2.50;;;;;;;4.28;42.02;101185.75;5052699;28;20029;-71
2023/03/29 20:59:05;;;;;;;3.88;1.95;;;;;;;4.29;41.21;101177.31;5051856;28;20024;-72
2023/03/29 21:01:33;;;;;;;8.35;3.33;;;;;;;4.21;46.03;101183.50;5052139;28;20074;-71
2023/03/29 21:03:59;;;;;;;7.07;2.72;;;;;;;4.13;47.77;101190.59;5052353;28;20426;-75
2023/03/29 21:06:26;;;;;;;5.10;2.58;;;;;;;4.06;46.69;101190.91;5052097;28;20033;-68
2023/03/29 21:08:52;;;;;;;6.47;2.60;;;;;;;3.69;48.32;101191.59;5052271;28;20080;-71
2023/03/29 21:11:19;;;;;;;5.13;2.50;;;;;;;3.59;48.94;101189.13;5052190;28;20064;-70
2023/03/29 21:13:45;;;;;;;7.22;2.97;;;;;;;3.64;48.44;101192.91;5051737;28;20021;-71
2023/03/29 21:16:11;;;;;;;5.80;2.10;;;;;;;3.61;49.02;101192.66;5044441;28;20493;-71
2023/03/29 21:18:38;;;;;;;4.97;2.10;;;;;;;3.42;49.70;101200.59;5052043;28;20471;-69
2023/03/29 21:21:05;;;;;;;5.50;2.40;;;;;;;3.40;50.33;101202.09;5051724;28;20032;-70
2023/03/29 21:23:31;;;;;;;6.20;2.50;;;;;;;3.37;50.59;101200.22;5051313;28;20790;-70
2023/03/29 21:25:56;;;;;;;5.85;2.70;;;;;;;3.35;51.62;101200.88;5050823;28;20013;-69
2023/03/29 21:28:22;;;;;;;7.93;2.90;;;;;;;3.49;51.81;101204.47;5051394;28;20124;-71
2023/03/29 21:30:47;;;;;;;5.47;2.50;;;;;;;3.45;51.61;101205.03;5051388;28;20021;-70
2023/03/29 21:33:13;;;;;;;5.37;2.90;;;;;;;3.42;53.30;101209.91;5052012;28;20032;-70
2023/03/29 21:35:38;;;;;;;8.90;3.65;;;;;;;3.23;53.15;101211.03;5043776;28;20024;-71
2023/03/29 21:38:03;;;;;;;6.63;3.22;;;;;;;3.12;52.93;101210.19;5051019;28;20513;-68
2023/03/29 21:40:29;;;;;;;9.27;3.78;;;;;;;2.80;52.90;101154.94;5051148;28;20058;-70